createdAt,value
2022-08-19T00:00:28.691Z,22.32
2022-08-19T00:05:44.292Z,22.30
2022-08-19T00:10:51.263Z,22.28
2022-08-19T00:15:59.799Z,22.26
2022-08-19T00:21:10.685Z,22.16
2022-08-19T00:26:18.233Z,22.03
2022-08-19T00:31:26.445Z,21.98
2022-08-19T00:36:34.384Z,21.99
2022-08-19T00:41:42.704Z,21.96
2022-08-19T00:46:57.773Z,21.84
2022-08-19T00:52:09.727Z,21.67
2022-08-19T00:57:21.301Z,21.53
2022-08-19T01:02:29.499Z,21.43
2022-08-19T01:07:38.327Z,21.35
2022-08-19T01:12:45.771Z,21.26
2022-08-19T01:17:54.100Z,21.22
2022-08-19T01:23:02.915Z,21.15
2022-08-19T01:28:10.821Z,21.13
2022-08-19T01:33:18.805Z,21.22
2022-08-19T01:38:29.589Z,21.26
2022-08-19T01:43:38.205Z,21.25
2022-08-19T01:49:08.557Z,21.11
2022-08-19T01:54:23.424Z,21.05
2022-08-19T01:59:38.169Z,21.04
2022-08-19T02:04:46.995Z,20.99
2022-08-19T02:09:54.543Z,20.92
2022-08-19T02:15:03.568Z,20.78
2022-08-19T02:20:14.239Z,20.65
2022-08-19T02:25:22.001Z,20.60
2022-08-19T02:30:29.304Z,20.64
2022-08-19T02:35:36.732Z,20.64
2022-08-19T02:40:50.791Z,20.51
2022-08-19T02:45:58.279Z,20.37
2022-08-19T02:51:05.434Z,20.29
2022-08-19T02:56:12.541Z,20.17
2022-08-19T03:01:26.861Z,20.09
2022-08-19T03:06:34.211Z,20.09
2022-08-19T03:11:41.670Z,20.03
2022-08-19T03:16:50.914Z,19.95
2022-08-19T03:21:59.102Z,19.90
2022-08-19T03:27:06.426Z,19.91
2022-08-19T03:32:19.802Z,19.96
2022-08-19T03:37:42.365Z,20.05
2022-08-19T03:42:49.704Z,20.13
2022-08-19T03:47:57.326Z,20.17
2022-08-19T03:53:04.492Z,20.21
2022-08-19T03:58:12.349Z,20.23
2022-08-19T04:03:20.329Z,20.22
2022-08-19T04:08:27.363Z,20.28
2022-08-19T04:13:34.233Z,20.35
2022-08-19T04:18:43.727Z,20.40
2022-08-19T04:23:53.726Z,20.41
2022-08-19T04:29:11.702Z,20.39
2022-08-19T04:34:25.341Z,20.43
2022-08-19T04:39:51.644Z,20.50
2022-08-19T04:45:09.306Z,20.59
2022-08-19T04:50:17.677Z,20.65
2022-08-19T04:55:26.842Z,20.68
2022-08-19T05:00:33.963Z,20.70
2022-08-19T05:05:46.361Z,20.73
2022-08-19T05:10:54.509Z,20.75
2022-08-19T05:16:02.619Z,20.79
2022-08-19T05:21:30.687Z,20.83
2022-08-19T05:26:38.299Z,20.89
2022-08-19T05:31:46.773Z,20.97
2022-08-19T05:36:58.200Z,21.07
2022-08-19T05:42:08.569Z,21.21
2022-08-19T05:47:17.279Z,21.37
2022-08-19T05:52:25.941Z,21.54
2022-08-19T05:57:41.421Z,21.72
2022-08-19T06:02:48.507Z,21.82
2022-08-19T06:07:55.755Z,21.92
2022-08-19T06:13:03.006Z,22.05
2022-08-19T06:18:09.944Z,22.22
2022-08-19T06:23:17.816Z,22.36
2022-08-19T06:28:26.346Z,22.47
2022-08-19T06:33:33.377Z,22.56
2022-08-19T06:38:40.867Z,22.65
2022-08-19T06:43:47.792Z,22.75
2022-08-19T06:48:55.646Z,22.86
2022-08-19T06:54:03.612Z,23.00
2022-08-19T06:59:13.709Z,23.14
2022-08-19T07:04:24.909Z,23.26
2022-08-19T07:09:32.721Z,23.36
2022-08-19T07:14:41.453Z,23.50
2022-08-19T07:19:48.536Z,23.62
2022-08-19T07:24:56.463Z,23.73
2022-08-19T07:30:03.857Z,23.85
2022-08-19T07:35:12.402Z,23.99
2022-08-19T07:40:19.951Z,24.16
2022-08-19T07:45:28.765Z,24.33
2022-08-19T07:50:36.717Z,24.50
2022-08-19T07:55:44.181Z,24.68
2022-08-19T08:00:53.465Z,24.87
2022-08-19T08:06:18.869Z,25.05
2022-08-19T08:11:28.975Z,25.31
2022-08-19T08:16:47.281Z,25.62
2022-08-19T08:21:56.966Z,25.93
2022-08-19T08:27:11.195Z,26.28
2022-08-19T08:32:18.886Z,26.54
2022-08-19T08:37:26.281Z,26.80
2022-08-19T08:42:36.354Z,27.05
2022-08-19T08:47:45.976Z,27.32
2022-08-19T08:52:57.181Z,27.52
2022-08-19T08:58:08.094Z,27.67
2022-08-19T09:03:23.107Z,27.84
2022-08-19T09:08:41.285Z,28.02
2022-08-19T09:14:29.113Z,28.19
2022-08-19T09:19:49.694Z,28.35
2022-08-19T09:24:58.363Z,28.47
2022-08-19T09:30:06.207Z,28.59
2022-08-19T09:35:15.014Z,28.69
2022-08-19T09:40:22.566Z,28.76
2022-08-19T09:45:32.300Z,28.86
2022-08-19T09:50:51.937Z,29.00
2022-08-19T09:56:00.431Z,29.15
2022-08-19T10:01:12.341Z,29.29
2022-08-19T10:06:20.149Z,29.44
2022-08-19T10:11:54.879Z,29.60
2022-08-19T10:17:17.410Z,29.70
2022-08-19T10:22:25.974Z,29.82
2022-08-19T10:27:33.593Z,29.92
2022-08-19T10:32:46.307Z,30.03
2022-08-19T10:37:57.338Z,30.16
2022-08-19T10:43:05.033Z,30.25
2022-08-19T10:48:15.613Z,30.30
2022-08-19T10:53:26.955Z,30.37
2022-08-19T10:58:34.835Z,30.45
2022-08-19T11:03:46.756Z,30.54
2022-08-19T11:08:54.046Z,30.61
2022-08-19T11:14:01.148Z,30.71
2022-08-19T11:19:09.764Z,30.82
2022-08-19T11:24:19.022Z,30.91
2022-08-19T11:29:28.870Z,31.00
2022-08-19T11:34:36.619Z,31.05
2022-08-19T11:39:43.674Z,31.10
2022-08-19T11:44:59.598Z,31.15
2022-08-19T11:50:07.591Z,31.20
2022-08-19T11:55:15.782Z,31.29
2022-08-19T12:00:23.489Z,31.33
2022-08-19T12:05:31.130Z,31.39
2022-08-19T12:10:43.295Z,31.46
2022-08-19T12:15:51.418Z,31.48
2022-08-19T12:20:58.350Z,31.51
2022-08-19T12:26:05.624Z,31.55
2022-08-19T12:31:13.762Z,31.64
2022-08-19T12:36:21.192Z,31.68
2022-08-19T12:41:28.409Z,31.72
2022-08-19T12:46:35.235Z,31.77
2022-08-19T12:51:43.840Z,31.86
2022-08-19T12:56:50.954Z,31.97
2022-08-19T13:01:58.706Z,32.06
2022-08-19T13:07:06.282Z,32.10
2022-08-19T13:12:14.733Z,32.15
2022-08-19T13:17:23.335Z,32.21
2022-08-19T13:22:30.952Z,32.28
2022-08-19T13:27:38.653Z,32.29
2022-08-19T13:33:05.569Z,32.28
2022-08-19T13:38:13.235Z,32.26
2022-08-19T13:43:23.803Z,32.24
2022-08-19T13:48:32.293Z,32.26
2022-08-19T13:53:39.967Z,32.27
2022-08-19T13:58:47.719Z,32.28
2022-08-19T14:03:55.094Z,32.27
2022-08-19T14:09:03.574Z,32.25
2022-08-19T14:14:13.321Z,32.24
2022-08-19T14:19:23.357Z,32.23
2022-08-19T14:24:30.564Z,32.22
2022-08-19T14:29:37.631Z,32.23
2022-08-19T14:34:47.058Z,32.21
2022-08-19T14:39:54.495Z,32.17
2022-08-19T14:45:03.182Z,32.12
2022-08-19T14:50:18.452Z,32.09
2022-08-19T14:55:25.985Z,32.07
2022-08-19T15:00:33.291Z,32.06
2022-08-19T15:05:43.973Z,32.04
2022-08-19T15:10:51.074Z,31.99
2022-08-19T15:15:58.555Z,31.92
2022-08-19T15:21:06.419Z,31.83
2022-08-19T15:26:16.029Z,31.79
2022-08-19T15:31:25.247Z,31.73
2022-08-19T15:36:36.505Z,31.66
2022-08-19T15:41:46.335Z,31.59
2022-08-19T15:46:53.688Z,31.54
2022-08-19T15:52:01.917Z,31.48
2022-08-19T15:57:27.233Z,31.44
2022-08-19T16:02:53.593Z,31.39
2022-08-19T16:08:01.412Z,31.34
2022-08-19T16:13:11.062Z,31.29
2022-08-19T16:18:18.009Z,31.22
2022-08-19T16:23:25.048Z,31.16
2022-08-19T16:28:32.198Z,31.08
2022-08-19T16:33:39.022Z,31.00
2022-08-19T16:38:46.703Z,30.91
2022-08-19T16:43:53.723Z,30.82
2022-08-19T16:49:00.716Z,30.73
2022-08-19T16:54:08.268Z,30.63
2022-08-19T16:59:15.622Z,30.53
2022-08-19T17:04:22.537Z,30.46
2022-08-19T17:09:29.597Z,30.40
2022-08-19T17:14:42.729Z,30.33
2022-08-19T17:19:53.234Z,30.26
2022-08-19T17:25:00.737Z,30.19
2022-08-19T17:30:09.687Z,30.14
2022-08-19T17:35:24.180Z,30.05
2022-08-19T17:40:31.540Z,29.96
2022-08-19T17:45:41.355Z,29.87
2022-08-19T17:50:48.338Z,29.82
2022-08-19T17:55:55.307Z,29.79
2022-08-19T18:01:03.032Z,29.71
2022-08-19T18:06:12.707Z,29.61
2022-08-19T18:11:19.989Z,29.55
2022-08-19T18:16:27.912Z,29.48
2022-08-19T18:21:36.299Z,29.38
2022-08-19T18:26:44.062Z,29.28
2022-08-19T18:31:51.168Z,29.18
2022-08-19T18:36:58.168Z,29.09
2022-08-19T18:42:23.247Z,28.98
2022-08-19T18:47:48.356Z,28.89
2022-08-19T18:52:55.404Z,28.80
2022-08-19T18:58:03.114Z,28.72
2022-08-19T19:03:11.479Z,28.56
2022-08-19T19:08:18.645Z,28.37
2022-08-19T19:13:27.076Z,28.07
2022-08-19T19:18:34.802Z,27.80
2022-08-19T19:23:42.613Z,27.57
2022-08-19T19:28:52.386Z,27.34
2022-08-19T19:33:59.382Z,27.03
2022-08-19T19:39:06.524Z,26.56
2022-08-19T19:44:30.832Z,26.06
2022-08-19T19:49:57.933Z,25.65
2022-08-19T19:55:09.672Z,25.31
2022-08-19T20:00:19.466Z,25.10
2022-08-19T20:05:29.736Z,24.95
2022-08-19T20:10:37.246Z,24.86
2022-08-19T20:15:44.910Z,24.77
2022-08-19T20:20:52.260Z,24.69
2022-08-19T20:25:59.782Z,24.63
2022-08-19T20:31:07.613Z,24.54
2022-08-19T20:36:14.822Z,24.43
2022-08-19T20:41:22.575Z,24.35
2022-08-19T20:46:30.393Z,24.28
2022-08-19T20:51:37.496Z,24.17
2022-08-19T20:56:44.902Z,24.06
2022-08-19T21:01:52.928Z,23.97
2022-08-19T21:07:00.543Z,23.83
2022-08-19T21:12:09.809Z,23.68
2022-08-19T21:17:16.836Z,23.51
2022-08-19T21:22:23.897Z,23.40
2022-08-19T21:27:31.510Z,23.28
2022-08-19T21:32:38.824Z,23.24
2022-08-19T21:37:45.836Z,23.20
2022-08-19T21:42:53.167Z,23.16
2022-08-19T21:48:00.338Z,23.10
2022-08-19T21:53:07.538Z,23.01
2022-08-19T21:58:18.194Z,22.93
2022-08-19T22:03:26.041Z,22.84
2022-08-19T22:08:33.141Z,22.77
2022-08-19T22:13:40.606Z,22.69
2022-08-19T22:18:48.061Z,22.64
2022-08-19T22:23:56.081Z,22.60
2022-08-19T22:29:03.183Z,22.55
2022-08-19T22:34:12.334Z,22.47
2022-08-19T22:39:19.498Z,22.42
2022-08-19T22:44:26.647Z,22.36
2022-08-19T22:49:33.682Z,22.33
2022-08-19T22:54:40.640Z,22.29
2022-08-19T22:59:48.747Z,22.22
2022-08-19T23:04:56.602Z,22.16
2022-08-19T23:10:03.743Z,22.11
2022-08-19T23:15:17.077Z,22.07
2022-08-19T23:20:27.518Z,22.04
2022-08-19T23:25:36.502Z,22.06
2022-08-19T23:30:45.875Z,22.07
2022-08-19T23:35:54.780Z,22.06
2022-08-19T23:41:04.575Z,22.07
2022-08-19T23:46:14.291Z,22.06
2022-08-19T23:51:34.790Z,22.04
2022-08-19T23:56:42.611Z,22.04
